Time;durP1;ratioP1;P1;durP2;ratioP2;P2;SDS_P1;SDS_P2;PMS_P1;PMS_P2;Temp;Humidity;BMP_temperature;BMP_pressure;BME280_temperature;BME280_humidity;BME280_pressure;Samples;Min_cycle;Max_cycle;Signal;HPM_P1;HPM_P2
2022/07/25 00:00:59;;;;;;;;;;;21.60;59.60;;;;;;5063542;28;19963;-72
2022/07/25 00:03:25;;;;;;;;;;;21.50;59.80;;;;;;5066900;28;20015;-71
2022/07/25 00:05:50;;;;;;;;;;;21.50;60.40;;;;;;5065853;28;19917;-71
2022/07/25 00:08:17;;;;;;;;;;;21.50;60.10;;;;;;5067471;28;20378;-71
2022/07/25 00:10:42;;;;;;;;;;;21.40;60.30;;;;;;5061519;28;20006;-71
2022/07/25 00:13:08;;;;;;;;;;;21.40;60.50;;;;;;5066976;28;20604;-71
2022/07/25 00:15:33;;;;;;;;;;;21.40;60.30;;;;;;5064306;28;19924;-72
2022/07/25 00:17:59;;;;;;;;;;;21.50;60.50;;;;;;5067270;28;19936;-70
2022/07/25 00:20:24;;;;;;;;;;;21.50;60.50;;;;;;5063770;28;19927;-68
2022/07/25 00:22:50;;;;;;;;;;;21.40;61.00;;;;;;5066561;28;19912;-69
2022/07/25 00:25:15;;;;;;;;;;;21.40;60.60;;;;;;5055794;28;19917;-69
2022/07/25 00:27:40;;;;;;;;;;;21.30;61.10;;;;;;5066621;28;20355;-70
2022/07/25 00:30:06;;;;;;;;;;;21.30;61.30;;;;;;5057088;28;19939;-70
2022/07/25 00:32:32;;;;;;;;;;;21.30;60.80;;;;;;5066408;28;20082;-70
2022/07/25 00:34:57;;;;;;;;;;;21.20;61.50;;;;;;5065398;28;20383;-71
2022/07/25 00:37:22;;;;;;;;;;;21.20;61.20;;;;;;5065668;28;19973;-67
2022/07/25 00:39:48;;;;;;;;;;;21.30;60.90;;;;;;5059278;28;20008;-70
2022/07/25 00:42:13;;;;;;;;;;;21.20;61.20;;;;;;5060703;28;19981;-70
2022/07/25 00:44:39;;;;;;;;;;;21.20;60.90;;;;;;5064469;28;20129;-69
2022/07/25 00:47:04;;;;;;;;;;;21.20;61.20;;;;;;5066420;28;19908;-69
2022/07/25 00:49:29;;;;;;;;;;;21.30;60.70;;;;;;5064676;28;22603;-70
2022/07/25 00:51:55;;;;;;;;;;;21.20;60.90;;;;;;5066882;28;20256;-69
2022/07/25 00:54:21;;;;;;;;;;;21.20;61.30;;;;;;5062927;28;20337;-70
2022/07/25 00:56:47;;;;;;;;;;;21.10;61.20;;;;;;5066063;28;19929;-73
2022/07/25 00:59:13;;;;;;;;;;;21.10;61.70;;;;;;5065536;28;19934;-73
2022/07/25 01:01:38;;;;;;;;;;;21.20;61.50;;;;;;5066896;28;20003;-73
2022/07/25 01:04:04;;;;;;;;;;;21.20;61.00;;;;;;5065802;28;20019;-70
2022/07/25 01:06:29;;;;;;;;;;;21.20;61.00;;;;;;5064458;28;20394;-74
2022/07/25 01:08:55;;;;;;;;;;;21.10;61.30;;;;;;5066525;28;20357;-72
2022/07/25 01:11:21;;;;;;;;;;;21.10;61.00;;;;;;5060281;28;19928;-72
2022/07/25 01:13:47;;;;;;;;;;;21.10;61.50;;;;;;5066139;28;20441;-73
2022/07/25 01:16:12;;;;;;;;;;;21.10;61.90;;;;;;5057389;28;19921;-72
2022/07/25 01:18:38;;;;;;;;;;;21.00;62.30;;;;;;5066582;28;19916;-71
2022/07/25 01:21:04;;;;;;;;;;;21.00;62.60;;;;;;5064450;28;19925;-73
2022/07/25 01:23:29;;;;;;;;;;;20.90;62.80;;;;;;5066509;28;19934;-72
2022/07/25 01:25:55;;;;;;;;;;;20.90;63.10;;;;;;5063079;28;20019;-73
2022/07/25 01:28:20;;;;;;;;;;;20.80;63.40;;;;;;5065902;28;19912;-73
2022/07/25 01:30:46;;;;;;;;;;;20.70;63.50;;;;;;5063964;28;20329;-73
2022/07/25 01:33:15;;;;;;;;;;;20.70;63.70;;;;;;5065087;28;20338;-73
2022/07/25 01:35:41;;;;;;;;;;;20.70;63.60;;;;;;5064413;28;20163;-73
2022/07/25 01:38:06;;;;;;;;;;;20.70;63.60;;;;;;5066111;28;19967;-72
2022/07/25 01:40:32;;;;;;;;;;;20.70;63.50;;;;;;5053844;28;19917;-73
2022/07/25 01:42:57;;;;;;;;;;;20.70;63.80;;;;;;5065174;28;19912;-73
2022/07/25 01:45:23;;;;;;;;;;;20.70;63.90;;;;;;5063569;28;20472;-73
2022/07/25 01:47:48;;;;;;;;;;;20.60;63.70;;;;;;5065710;28;19924;-72
2022/07/25 01:50:13;;;;;;;;;;;20.60;63.80;;;;;;5056848;28;20015;-72
2022/07/25 01:52:39;;;;;;;;;;;20.60;64.20;;;;;;5049854;28;19917;-72
2022/07/25 01:55:04;;;;;;;;;;;20.60;64.10;;;;;;5063663;28;19912;-72
2022/07/25 01:57:30;;;;;;;;;;;20.60;63.80;;;;;;5065781;28;20489;-72
2022/07/25 01:59:55;;;;;;;;;;;20.60;63.90;;;;;;5063487;28;20007;-73
2022/07/25 02:02:21;;;;;;;;;;;20.60;63.80;;;;;;5052360;28;20464;-73
2022/07/25 02:04:46;;;;;;;;;;;20.60;63.70;;;;;;5062602;28;19920;-72
2022/07/25 02:07:11;;;;;;;;;;;20.50;64.10;;;;;;5053575;28;19909;-72
2022/07/25 02:09:38;;;;;;;;;;;20.50;64.30;;;;;;5061721;28;19912;-72
2022/07/25 02:12:06;;;;;;;;;;;20.40;64.30;;;;;;5045568;28;19919;-73
2022/07/25 02:14:31;;;;;;;;;;;20.40;64.30;;;;;;5063151;28;19920;-73
2022/07/25 02:16:57;;;;;;;;;;;20.40;64.60;;;;;;5065741;28;19943;-71
2022/07/25 02:19:22;;;;;;;;;;;20.30;64.70;;;;;;5064547;28;19916;-72
2022/07/25 02:21:48;;;;;;;;;;;20.30;64.40;;;;;;5063688;28;19916;-66
2022/07/25 02:24:13;;;;;;;;;;;20.30;64.90;;;;;;5064424;28;19913;-70
2022/07/25 02:26:39;;;;;;;;;;;20.30;64.20;;;;;;5059787;28;20034;-70
2022/07/25 02:29:04;;;;;;;;;;;20.30;64.30;;;;;;5064105;28;20319;-70
2022/07/25 02:31:29;;;;;;;;;;;20.40;64.00;;;;;;5064537;28;20383;-69
2022/07/25 02:33:55;;;;;;;;;;;20.40;64.00;;;;;;5064466;28;20014;-70
2022/07/25 02:36:20;;;;;;;;;;;20.40;63.80;;;;;;5057872;28;20411;-70
2022/07/25 02:38:46;;;;;;;;;;;20.40;64.00;;;;;;5063329;28;19913;-70
2022/07/25 02:41:11;;;;;;;;;;;20.40;63.60;;;;;;5061472;28;20019;-71
2022/07/25 02:43:37;;;;;;;;;;;20.40;63.60;;;;;;5068575;28;19916;-70
2022/07/25 02:46:02;;;;;;;;;;;20.40;63.30;;;;;;5066939;28;19944;-70
2022/07/25 02:48:27;;;;;;;;;;;20.40;63.80;;;;;;5069050;28;19969;-70
2022/07/25 02:50:53;;;;;;;;;;;20.40;63.60;;;;;;5057874;28;19999;-70
2022/07/25 02:53:18;;;;;;;;;;;20.40;63.40;;;;;;5068558;28;20375;-71
2022/07/25 02:55:44;;;;;;;;;;;20.40;64.20;;;;;;5057507;28;19920;-71
2022/07/25 02:58:09;;;;;;;;;;;20.30;64.10;;;;;;5067740;28;20383;-70
2022/07/25 03:00:36;;;;;;;;;;;20.30;64.40;;;;;;5066553;28;19981;-70
2022/07/25 03:03:01;;;;;;;;;;;20.20;64.10;;;;;;5068511;28;19916;-70
2022/07/25 03:05:26;;;;;;;;;;;20.20;64.20;;;;;;5066690;28;19913;-71
2022/07/25 03:07:52;;;;;;;;;;;20.20;64.50;;;;;;5062945;28;19912;-70
2022/07/25 03:10:17;;;;;;;;;;;20.10;64.60;;;;;;5065913;28;20374;-70
2022/07/25 03:12:43;;;;;;;;;;;20.10;65.30;;;;;;5063852;28;20448;-71
2022/07/25 03:15:09;;;;;;;;;;;20.00;65.00;;;;;;5066235;28;19920;-70
2022/07/25 03:17:34;;;;;;;;;;;20.00;65.20;;;;;;5060725;28;19915;-71
2022/07/25 03:20:00;;;;;;;;;;;20.00;65.40;;;;;;5065686;28;19931;-71
2022/07/25 03:22:25;;;;;;;;;;;20.00;65.50;;;;;;5068389;28;19912;-71
2022/07/25 03:24:52;;;;;;;;;;;19.90;66.00;;;;;;5066728;28;20119;-71
2022/07/25 03:27:17;;;;;;;;;;;19.90;66.00;;;;;;5059614;28;19913;-71
2022/07/25 03:29:43;;;;;;;;;;;19.90;65.60;;;;;;5067417;28;19917;-72
2022/07/25 03:32:08;;;;;;;;;;;19.90;65.80;;;;;;5067713;28;19955;-71
2022/07/25 03:34:34;;;;;;;;;;;19.90;66.00;;;;;;5068110;28;19917;-71
2022/07/25 03:37:00;;;;;;;;;;;19.80;66.90;;;;;;5066448;28;19917;-71
2022/07/25 03:39:26;;;;;;;;;;;19.80;66.10;;;;;;5068176;28;19924;-72
2022/07/25 03:41:51;;;;;;;;;;;19.80;66.60;;;;;;5066388;28;19927;-71
2022/07/25 03:44:17;;;;;;;;;;;19.80;66.70;;;;;;5067953;28;19913;-71
2022/07/25 03:46:43;;;;;;;;;;;19.80;66.30;;;;;;5065653;28;19923;-71
2022/07/25 03:49:08;;;;;;;;;;;19.80;66.30;;;;;;5067170;28;20379;-71
2022/07/25 03:51:34;;;;;;;;;;;19.80;66.70;;;;;;5062757;28;19920;-71
2022/07/25 03:54:02;;;;;;;;;;;19.80;66.80;;;;;;5067338;28;19919;-73
2022/07/25 03:56:41;;;;;;;;;;;19.80;66.30;;;;;;5065888;28;19921;-73
2022/07/25 03:59:07;;;;;;;;;;;19.80;66.20;;;;;;5067932;28;20037;-73
2022/07/25 04:01:33;;;;;;;;;;;19.80;66.30;;;;;;5065943;28;19999;-73
2022/07/25 04:03:59;;;;;;;;;;;19.80;66.40;;;;;;5067785;28;20395;-73
2022/07/25 04:06:24;;;;;;;;;;;19.80;66.70;;;;;;5066140;28;20407;-73
2022/07/25 04:08:50;;;;;;;;;;;19.80;66.80;;;;;;5067553;28;19916;-71
2022/07/25 04:11:16;;;;;;;;;;;19.80;66.90;;;;;;5064822;28;19965;-72
2022/07/25 04:13:41;;;;;;;;;;;19.80;67.00;;;;;;5067044;28;19924;-72
2022/07/25 04:16:07;;;;;;;;;;;19.90;66.70;;;;;;5055234;28;19917;-73
2022/07/25 04:18:33;;;;;;;;;;;19.90;66.70;;;;;;5066702;28;20026;-72
2022/07/25 04:20:58;;;;;;;;;;;19.80;66.60;;;;;;5064393;28;19916;-72
2022/07/25 04:23:23;;;;;;;;;;;19.90;67.40;;;;;;5066990;28;19989;-72
2022/07/25 04:25:49;;;;;;;;;;;19.90;67.70;;;;;;5065161;28;19917;-71
2022/07/25 04:28:14;;;;;;;;;;;19.80;67.20;;;;;;5066501;28;19958;-71
2022/07/25 04:30:40;;;;;;;;;;;19.90;67.50;;;;;;5064653;28;19912;-73
2022/07/25 04:33:05;;;;;;;;;;;19.90;67.80;;;;;;5054666;28;19909;-70
2022/07/25 04:35:31;;;;;;;;;;;19.90;67.80;;;;;;5065000;28;20457;-71
2022/07/25 04:37:56;;;;;;;;;;;19.90;67.60;;;;;;5066191;28;19916;-70
2022/07/25 04:40:21;;;;;;;;;;;20.00;67.70;;;;;;5064848;28;20355;-72
2022/07/25 04:42:47;;;;;;;;;;;20.00;67.10;;;;;;5053932;28;20338;-70
2022/07/25 04:45:12;;;;;;;;;;;20.10;67.60;;;;;;5064125;28;20375;-70
2022/07/25 04:47:38;;;;;;;;;;;20.10;67.00;;;;;;5054800;28;19966;-70
2022/07/25 04:50:03;;;;;;;;;;;20.20;66.60;;;;;;5064322;28;20007;-69
2022/07/25 04:52:29;;;;;;;;;;;20.30;66.80;;;;;;5067016;28;19915;-70
2022/07/25 04:54:54;;;;;;;;;;;20.30;67.60;;;;;;5066725;28;20457;-70
2022/07/25 04:57:20;;;;;;;;;;;20.30;67.80;;;;;;5064318;28;20001;-70
2022/07/25 04:59:45;;;;;;;;;;;20.40;66.40;;;;;;5064988;28;19966;-70
2022/07/25 05:02:10;;;;;;;;;;;20.40;66.10;;;;;;5059884;28;19917;-70
2022/07/25 05:04:36;;;;;;;;;;;20.50;66.20;;;;;;5065619;28;19912;-69
2022/07/25 05:07:01;;;;;;;;;;;20.60;66.20;;;;;;5064243;28;19958;-70
2022/07/25 05:09:27;;;;;;;;;;;20.60;65.70;;;;;;5066330;28;20371;-71
2022/07/25 05:11:53;;;;;;;;;;;20.70;66.00;;;;;;5058449;28;19920;-70
2022/07/25 05:14:18;;;;;;;;;;;20.80;65.80;;;;;;5065682;28;19923;-70
2022/07/25 05:17:01;;;;;;;;;;;20.80;66.10;;;;;;5032602;28;19940;-80
2022/07/25 05:19:27;;;;;;;;;;;20.90;66.00;;;;;;5060961;28;19967;-70
2022/07/25 05:21:52;;;;;;;;;;;21.00;65.90;;;;;;5057605;28;19917;-70
2022/07/25 05:24:18;;;;;;;;;;;21.10;65.80;;;;;;5065065;28;20330;-72
2022/07/25 05:26:43;;;;;;;;;;;21.20;65.80;;;;;;5064169;28;19999;-72
2022/07/25 05:29:09;;;;;;;;;;;21.30;65.80;;;;;;5065614;28;19940;-70
2022/07/25 05:31:35;;;;;;;;;;;21.30;66.40;;;;;;5063965;28;20007;-72
2022/07/25 05:34:00;;;;;;;;;;;21.40;65.70;;;;;;5065821;28;20006;-72
2022/07/25 05:36:25;;;;;;;;;;;21.50;65.30;;;;;;5053093;28;20363;-73
2022/07/25 05:38:51;;;;;;;;;;;21.60;65.00;;;;;;5064884;28;19968;-72
2022/07/25 05:41:16;;;;;;;;;;;21.70;65.20;;;;;;5063384;28;19920;-72
2022/07/25 05:43:44;;;;;;;;;;;21.80;65.00;;;;;;5065344;28;20014;-72
2022/07/25 05:46:10;;;;;;;;;;;21.90;65.00;;;;;;5063790;28;19923;-72
2022/07/25 05:48:35;;;;;;;;;;;22.00;65.10;;;;;;5065585;28;19935;-73
2022/07/25 05:51:01;;;;;;;;;;;22.00;64.90;;;;;;5063833;28;19928;-72
2022/07/25 05:53:27;;;;;;;;;;;22.20;65.00;;;;;;5053270;28;19912;-73
2022/07/25 05:55:52;;;;;;;;;;;22.20;64.90;;;;;;5061862;28;19920;-73
2022/07/25 05:58:18;;;;;;;;;;;22.40;64.70;;;;;;5065394;28;20295;-72
2022/07/25 06:00:43;;;;;;;;;;;22.40;64.30;;;;;;5063279;28;19920;-71
2022/07/25 06:03:09;;;;;;;;;;;22.60;64.50;;;;;;5065763;28;20367;-73
2022/07/25 06:05:34;;;;;;;;;;;22.70;63.90;;;;;;5060975;28;20415;-72
2022/07/25 06:08:00;;;;;;;;;;;22.70;63.80;;;;;;5052473;28;19912;-72
2022/07/25 06:10:25;;;;;;;;;;;22.80;63.90;;;;;;5063342;28;20026;-71
2022/07/25 06:12:51;;;;;;;;;;;22.90;63.70;;;;;;5065868;28;20368;-72
2022/07/25 06:15:16;;;;;;;;;;;23.00;64.10;;;;;;5064141;28;20362;-72
2022/07/25 06:17:42;;;;;;;;;;;23.10;64.20;;;;;;5059802;28;20022;-69
2022/07/25 06:20:08;;;;;;;;;;;23.10;63.80;;;;;;5064707;28;20367;-70
2022/07/25 06:22:33;;;;;;;;;;;23.30;63.80;;;;;;5063522;28;20348;-72
2022/07/25 06:25:00;;;;;;;;;;;23.40;63.50;;;;;;5065645;28;19936;-73
2022/07/25 06:27:25;;;;;;;;;;;23.50;63.20;;;;;;5057029;28;19943;-72
2022/07/25 06:29:51;;;;;;;;;;;23.60;63.00;;;;;;5064768;28;19923;-71
2022/07/25 06:32:17;;;;;;;;;;;23.70;63.10;;;;;;5058328;28;19924;-70
2022/07/25 06:34:42;;;;;;;;;;;23.80;63.20;;;;;;5062990;28;19963;-70
2022/07/25 06:37:08;;;;;;;;;;;23.90;62.90;;;;;;5061274;28;20227;-70
2022/07/25 06:39:33;;;;;;;;;;;24.10;62.90;;;;;;5065034;28;19919;-71
2022/07/25 06:41:59;;;;;;;;;;;24.20;62.80;;;;;;5058162;28;19920;-74
2022/07/25 06:44:25;;;;;;;;;;;24.40;62.70;;;;;;5064312;28;19917;-74
2022/07/25 06:46:50;;;;;;;;;;;24.40;62.60;;;;;;5056157;28;20382;-73
2022/07/25 06:49:16;;;;;;;;;;;24.40;62.60;;;;;;5064529;28;20011;-73
2022/07/25 06:51:41;;;;;;;;;;;24.40;62.20;;;;;;5052482;28;19949;-74
2022/07/25 06:54:07;;;;;;;;;;;24.50;62.30;;;;;;5064633;28;20375;-75
2022/07/25 06:56:32;;;;;;;;;;;24.50;62.20;;;;;;5062767;28;19960;-74
2022/07/25 06:58:58;;;;;;;;;;;24.70;62.60;;;;;;5064882;28;20375;-74
2022/07/25 07:01:24;;;;;;;;;;;24.80;62.90;;;;;;5062451;28;20376;-75
2022/07/25 07:03:49;;;;;;;;;;;25.10;62.70;;;;;;5065107;28;20272;-71
2022/07/25 07:06:15;;;;;;;;;;;25.10;62.20;;;;;;5062907;28;20332;-74
2022/07/25 07:08:40;;;;;;;;;;;25.00;61.80;;;;;;5060735;28;19920;-75
2022/07/25 07:11:06;;;;;;;;;;;25.30;62.30;;;;;;5062135;28;20290;-71
2022/07/25 07:13:31;;;;;;;;;;;25.20;62.30;;;;;;5065402;28;20522;-72
2022/07/25 07:15:57;;;;;;;;;;;25.30;62.00;;;;;;5062535;28;19970;-75
2022/07/25 07:18:22;;;;;;;;;;;25.30;62.10;;;;;;5064416;28;19971;-73
2022/07/25 07:20:47;;;;;;;;;;;25.40;62.10;;;;;;5062209;28;20315;-73
2022/07/25 07:23:13;;;;;;;;;;;25.50;61.70;;;;;;5064366;28;19935;-73
2022/07/25 07:25:39;;;;;;;;;;;25.70;61.70;;;;;;5063629;28;19921;-73
2022/07/25 07:28:05;;;;;;;;;;;25.70;62.00;;;;;;5068612;28;19916;-72
2022/07/25 07:30:31;;;;;;;;;;;25.70;62.20;;;;;;5068171;28;19963;-73
2022/07/25 07:32:56;;;;;;;;;;;25.90;62.60;;;;;;5063759;28;19951;-67
2022/07/25 07:35:24;;;;;;;;;;;26.10;61.90;;;;;;5067021;28;19990;-67
2022/07/25 07:37:50;;;;;;;;;;;26.20;61.90;;;;;;5066252;28;19916;-67
2022/07/25 07:40:16;;;;;;;;;;;26.20;61.60;;;;;;5070263;28;19916;-65
2022/07/25 07:42:43;;;;;;;;;;;26.30;61.80;;;;;;5065799;28;19928;-67
2022/07/25 07:45:10;;;;;;;;;;;26.40;61.10;;;;;;5066876;28;19919;-66
2022/07/25 07:47:35;;;;;;;;;;;26.50;61.20;;;;;;5063275;28;19965;-66
2022/07/25 07:50:01;;;;;;;;;;;26.70;61.20;;;;;;5067192;28;19924;-67
2022/07/25 07:52:26;;;;;;;;;;;26.80;60.90;;;;;;5065127;28;19922;-67
2022/07/25 07:57:36;;;;;;;;;;;26.60;61.30;;;;;;5057483;28;19927;-67
2022/07/25 08:00:03;;;;;;;;;;;26.80;61.20;;;;;;5066696;28;20023;-67
2022/07/25 08:02:28;;;;;;;;;;;26.80;60.40;;;;;;5063197;28;19959;-68
2022/07/25 08:04:53;;;;;;;;;;;26.90;61.00;;;;;;5066218;28;19916;-68
2022/07/25 08:07:19;;;;;;;;;;;27.00;61.60;;;;;;5064518;28;20312;-67
2022/07/25 08:09:44;;;;;;;;;;;27.10;60.80;;;;;;5067143;28;20469;-68
2022/07/25 08:12:09;;;;;;;;;;;27.20;60.30;;;;;;5061525;28;19916;-66
2022/07/25 08:14:35;;;;;;;;;;;27.30;60.30;;;;;;5069910;28;19916;-65
2022/07/25 08:17:00;;;;;;;;;;;27.40;60.80;;;;;;5064035;28;20003;-66
2022/07/25 08:19:26;;;;;;;;;;;27.50;60.20;;;;;;5066230;28;19912;-67
2022/07/25 08:21:51;;;;;;;;;;;27.50;60.20;;;;;;5065124;28;20386;-67
2022/07/25 08:24:17;;;;;;;;;;;27.50;60.30;;;;;;5067074;28;19912;-66
2022/07/25 08:26:42;;;;;;;;;;;27.50;60.30;;;;;;5065332;28;19912;-66
2022/07/25 08:29:07;;;;;;;;;;;27.60;60.60;;;;;;5067039;28;19995;-65
2022/07/25 08:31:33;;;;;;;;;;;27.80;60.60;;;;;;5061266;28;20367;-66
2022/07/25 08:33:58;;;;;;;;;;;28.00;59.70;;;;;;5064127;28;19959;-66
2022/07/25 08:36:24;;;;;;;;;;;28.10;59.90;;;;;;5059187;28;20020;-67
2022/07/25 08:38:49;;;;;;;;;;;28.20;59.50;;;;;;5063239;28;19909;-67
2022/07/25 08:41:14;;;;;;;;;;;28.20;60.20;;;;;;5059912;28;19982;-67
2022/07/25 08:43:40;;;;;;;;;;;28.40;59.60;;;;;;5066607;28;19973;-68
2022/07/25 08:46:06;;;;;;;;;;;28.40;59.40;;;;;;5065076;28;20390;-67
2022/07/25 08:48:32;;;;;;;;;;;28.60;59.30;;;;;;5066974;28;20529;-66
2022/07/25 08:50:58;;;;;;;;;;;28.70;59.40;;;;;;5064823;28;19992;-68
2022/07/25 08:53:23;;;;;;;;;;;28.80;59.70;;;;;;5064655;28;19986;-68
2022/07/25 08:55:49;;;;;;;;;;;28.80;58.80;;;;;;5065482;28;19952;-67
2022/07/25 08:58:18;;;;;;;;;;;28.80;59.10;;;;;;5066311;28;19967;-78
2022/07/25 09:00:44;;;;;;;;;;;28.90;58.90;;;;;;5064336;28;20379;-67
2022/07/25 09:03:09;;;;;;;;;;;29.00;58.60;;;;;;5062394;28;19923;-68
2022/07/25 09:05:35;;;;;;;;;;;29.20;59.30;;;;;;5064168;28;20168;-67
2022/07/25 09:08:10;;;;;;;;;;;29.30;58.40;;;;;;5062841;28;19917;-67
2022/07/25 09:10:36;;;;;;;;;;;29.30;58.50;;;;;;5065881;28;19912;-79
2022/07/25 09:13:03;;;;;;;;;;;29.40;57.90;;;;;;5063309;28;20763;-79
2022/07/25 09:15:33;;;;;;;;;;;29.50;57.70;;;;;;5064386;28;19951;-74
2022/07/25 09:18:00;;;;;;;;;;;29.40;58.10;;;;;;5057977;28;20368;-75
2022/07/25 09:20:36;;;;;;;;;;;29.50;58.30;;;;;;5063251;28;19917;-75
2022/07/25 09:23:02;;;;;;;;;;;29.60;58.00;;;;;;5063164;28;19921;-74
2022/07/25 09:25:28;;;;;;;;;;;29.70;58.10;;;;;;5064103;28;19912;-75
2022/07/25 09:27:54;;;;;;;;;;;29.90;58.00;;;;;;5061585;28;20123;-75
2022/07/25 09:30:20;;;;;;;;;;;30.00;58.10;;;;;;5064536;28;20001;-74
2022/07/25 09:32:45;;;;;;;;;;;30.20;58.30;;;;;;5059028;28;20029;-75
2022/07/25 09:35:11;;;;;;;;;;;30.40;57.60;;;;;;5065072;28;20020;-75
2022/07/25 09:37:36;;;;;;;;;;;30.40;57.70;;;;;;5060100;28;19913;-75
2022/07/25 09:40:10;;;;;;;;;;;30.50;56.90;;;;;;5062945;28;19931;-76
2022/07/25 09:42:36;;;;;;;;;;;30.70;57.50;;;;;;5056950;28;19916;-75
2022/07/25 09:45:06;;;;;;;;;;;30.90;57.40;;;;;;5065447;28;19923;-74
2022/07/25 09:47:33;;;;;;;;;;;30.90;56.40;;;;;;5058767;28;20003;-75
2022/07/25 09:49:59;;;;;;;;;;;31.00;57.10;;;;;;5064358;28;20063;-75
2022/07/25 09:52:24;;;;;;;;;;;31.30;56.70;;;;;;5062966;28;20365;-75
2022/07/25 09:54:50;;;;;;;;;;;31.40;56.00;;;;;;5065540;28;19917;-75
2022/07/25 09:57:15;;;;;;;;;;;31.60;56.50;;;;;;5054063;28;19924;-76
2022/07/25 09:59:41;;;;;;;;;;;31.50;54.80;;;;;;5065000;28;19916;-75
2022/07/25 10:02:09;;;;;;;;;;;31.60;54.40;;;;;;5063297;28;20298;-75
2022/07/25 10:04:42;;;;;;;;;;;31.90;55.80;;;;;;5064848;28;20057;-75
2022/07/25 10:07:09;;;;;;;;;;;32.10;54.80;;;;;;5055043;28;19966;-78
2022/07/25 10:09:42;;;;;;;;;;;32.20;53.80;;;;;;5064959;28;19917;-75
2022/07/25 10:12:08;;;;;;;;;;;32.40;54.20;;;;;;5062849;28;19912;-75
2022/07/25 10:14:34;;;;;;;;;;;32.50;52.70;;;;;;5065142;28;19970;-76
2022/07/25 10:17:03;;;;;;;;;;;32.10;52.50;;;;;;5062872;28;20003;-74
2022/07/25 10:19:44;;;;;;;;;;;32.20;52.50;;;;;;5062331;28;20290;-74
2022/07/25 10:22:10;;;;;;;;;;;32.10;52.70;;;;;;5062408;28;20003;-74
2022/07/25 10:24:37;;;;;;;;;;;32.40;52.80;;;;;;5064797;28;20011;-76
2022/07/25 10:27:10;;;;;;;;;;;32.40;52.20;;;;;;5061797;28;19913;-76
2022/07/25 10:29:36;;;;;;;;;;;32.60;52.00;;;;;;5064917;28;19912;-75
2022/07/25 10:32:06;;;;;;;;;;;32.40;51.70;;;;;;5062962;28;19943;-75
2022/07/25 10:34:32;;;;;;;;;;;32.60;52.20;;;;;;5062290;28;19917;-76
2022/07/25 10:37:07;;;;;;;;;;;32.90;51.50;;;;;;5063861;28;19919;-76
2022/07/25 10:39:36;;;;;;;;;;;32.80;51.00;;;;;;5054434;28;19947;-75
2022/07/25 10:42:03;;;;;;;;;;;32.50;51.20;;;;;;5061967;28;19920;-77
2022/07/25 10:44:38;;;;;;;;;;;32.70;50.20;;;;;;5062685;28;19919;-75
2022/07/25 10:47:13;;;;;;;;;;;32.70;50.60;;;;;;5050526;28;20027;-76
2022/07/25 10:49:40;;;;;;;;;;;33.10;50.40;;;;;;5066119;28;19963;-77
2022/07/25 10:52:06;;;;;;;;;;;33.30;50.00;;;;;;5065350;28;20389;-76
2022/07/25 10:54:33;;;;;;;;;;;33.20;49.50;;;;;;5055359;28;19944;-77
2022/07/25 10:56:59;;;;;;;;;;;33.20;50.00;;;;;;5062229;28;20308;-76
2022/07/25 10:59:25;;;;;;;;;;;33.30;49.10;;;;;;5064583;28;20466;-75
2022/07/25 11:01:51;;;;;;;;;;;33.40;49.00;;;;;;5066219;28;19939;-76
2022/07/25 11:04:16;;;;;;;;;;;33.50;47.80;;;;;;5068866;28;20363;-75
2022/07/25 11:06:42;;;;;;;;;;;33.90;47.30;;;;;;5066833;28;20397;-78
2022/07/25 11:09:14;;;;;;;;;;;34.10;46.80;;;;;;5064726;28;19916;-74
2022/07/25 11:11:42;;;;;;;;;;;34.40;46.70;;;;;;5060187;28;19924;-75
2022/07/25 11:14:18;;;;;;;;;;;34.80;46.00;;;;;;5062206;28;20447;-75
2022/07/25 11:16:44;;;;;;;;;;;34.50;46.50;;;;;;5062765;28;19913;-75
2022/07/25 11:19:20;;;;;;;;;;;34.10;47.00;;;;;;5068902;28;19919;-75
2022/07/25 11:21:46;;;;;;;;;;;33.50;47.50;;;;;;5066498;28;19921;-75
2022/07/25 11:24:12;;;;;;;;;;;34.20;46.60;;;;;;5068892;28;19928;-76
2022/07/25 11:26:51;;;;;;;;;;;35.10;46.00;;;;;;5066452;28;19923;-76
2022/07/25 11:29:17;;;;;;;;;;;35.90;45.40;;;;;;5055203;28;19913;-76
2022/07/25 11:31:49;;;;;;;;;;;35.90;44.40;;;;;;5064078;28;19928;-76
2022/07/25 11:34:15;;;;;;;;;;;35.20;44.00;;;;;;5067626;28;19955;-76
2022/07/25 11:36:40;;;;;;;;;;;35.40;44.30;;;;;;5065425;28;20371;-76
2022/07/25 11:39:06;;;;;;;;;;;35.40;44.10;;;;;;5063160;28;19913;-73
2022/07/25 11:41:31;;;;;;;;;;;35.00;44.00;;;;;;5065203;28;20400;-75
2022/07/25 11:43:56;;;;;;;;;;;35.10;44.80;;;;;;5057541;28;20635;-73
2022/07/25 11:46:22;;;;;;;;;;;35.20;43.80;;;;;;5067059;28;19959;-75
2022/07/25 11:48:47;;;;;;;;;;;35.20;43.50;;;;;;5065820;28;19966;-74
2022/07/25 11:51:14;;;;;;;;;;;34.80;43.70;;;;;;5067632;28;20019;-76
2022/07/25 11:53:48;;;;;;;;;;;34.90;43.50;;;;;;5066120;28;19916;-75
2022/07/25 11:56:20;;;;;;;;;;;35.90;42.40;;;;;;5055998;28;19916;-84
2022/07/25 11:58:56;;;;;;;;;;;36.10;42.30;;;;;;5063584;28;20382;-75
2022/07/25 12:01:23;;;;;;;;;;;36.30;41.10;;;;;;5067905;28;19917;-76
2022/07/25 12:03:49;;;;;;;;;;;36.60;40.80;;;;;;5066319;28;19955;-74
2022/07/25 12:06:14;;;;;;;;;;;37.00;40.30;;;;;;5068427;28;19955;-73
2022/07/25 12:08:41;;;;;;;;;;;36.80;40.30;;;;;;5065962;28;20596;-75
2022/07/25 12:11:19;;;;;;;;;;;37.40;40.10;;;;;;5067402;28;19922;-77
2022/07/25 12:13:45;;;;;;;;;;;37.00;40.30;;;;;;5062040;28;19916;-76
2022/07/25 12:16:11;;;;;;;;;;;37.20;40.20;;;;;;5065549;28;19923;-75
2022/07/25 12:18:36;;;;;;;;;;;37.40;39.80;;;;;;5060073;28;19923;-76
2022/07/25 12:21:02;;;;;;;;;;;37.80;38.80;;;;;;5065855;28;20442;-75
2022/07/25 12:23:27;;;;;;;;;;;37.90;39.90;;;;;;5059503;28;20444;-74
2022/07/25 12:25:53;;;;;;;;;;;37.70;39.30;;;;;;5063148;28;19920;-75
2022/07/25 12:28:18;;;;;;;;;;;37.70;39.60;;;;;;5061429;28;19917;-75
2022/07/25 12:30:45;;;;;;;;;;;37.70;38.20;;;;;;5064284;28;19917;-76
2022/07/25 12:33:11;;;;;;;;;;;38.60;37.20;;;;;;5062554;28;20264;-74
2022/07/25 12:35:38;;;;;;;;;;;38.40;36.80;;;;;;5067163;28;19923;-74
2022/07/25 12:38:04;;;;;;;;;;;39.00;36.30;;;;;;5065888;28;20656;-79
2022/07/25 12:40:29;;;;;;;;;;;39.50;35.30;;;;;;5067450;28;19920;-73
2022/07/25 12:42:56;;;;;;;;;;;38.80;36.10;;;;;;5058580;28;19978;-79
2022/07/25 12:45:22;;;;;;;;;;;38.90;36.30;;;;;;5063501;28;19924;-77
2022/07/25 12:47:47;;;;;;;;;;;38.20;37.40;;;;;;5058712;28;19916;-77
2022/07/25 12:50:13;;;;;;;;;;;38.10;36.60;;;;;;5064787;28;19920;-74
2022/07/25 12:52:39;;;;;;;;;;;37.60;37.00;;;;;;5064570;28;19938;-76
2022/07/25 12:55:08;;;;;;;;;;;37.40;37.80;;;;;;5067070;28;19928;-76
2022/07/25 12:57:34;;;;;;;;;;;37.70;37.40;;;;;;5060944;28;19925;-75
2022/07/25 13:00:00;;;;;;;;;;;37.50;38.10;;;;;;5062163;28;19921;-75
2022/07/25 13:02:25;;;;;;;;;;;37.60;37.10;;;;;;5061867;28;19916;-77
2022/07/25 13:04:51;;;;;;;;;;;36.40;38.20;;;;;;5061961;28;20022;-75
2022/07/25 13:07:16;;;;;;;;;;;36.40;38.60;;;;;;5059260;28;19918;-73
2022/07/25 13:09:42;;;;;;;;;;;37.30;38.20;;;;;;5063063;28;20473;-72
2022/07/25 13:12:07;;;;;;;;;;;37.40;37.50;;;;;;5058790;28;19916;-73
2022/07/25 13:14:33;;;;;;;;;;;37.30;37.40;;;;;;5064496;28;20345;-73
2022/07/25 13:16:58;;;;;;;;;;;37.10;37.70;;;;;;5061719;28;19916;-72
2022/07/25 13:19:24;;;;;;;;;;;36.70;38.60;;;;;;5062956;28;20000;-75
2022/07/25 13:21:49;;;;;;;;;;;36.40;38.50;;;;;;5059591;28;19928;-73
2022/07/25 13:24:15;;;;;;;;;;;36.30;38.90;;;;;;5059940;28;19923;-75
2022/07/25 13:26:40;;;;;;;;;;;36.70;38.20;;;;;;5063049;28;20506;-75
2022/07/25 13:29:10;;;;;;;;;;;36.60;38.20;;;;;;5060694;28;19924;-74
2022/07/25 13:31:36;;;;;;;;;;;36.40;39.40;;;;;;5062370;28;20308;-74
2022/07/25 13:34:01;;;;;;;;;;;36.30;39.30;;;;;;5059311;28;20496;-74
2022/07/25 13:36:27;;;;;;;;;;;36.30;38.90;;;;;;5063325;28;19919;-74
2022/07/25 13:38:52;;;;;;;;;;;36.30;38.40;;;;;;5060177;28;20050;-75
2022/07/25 13:41:18;;;;;;;;;;;36.30;39.20;;;;;;5065409;28;20039;-75
2022/07/25 13:43:43;;;;;;;;;;;36.40;38.60;;;;;;5063197;28;19916;-74
2022/07/25 13:46:10;;;;;;;;;;;36.80;39.70;;;;;;5064795;28;19920;-74
2022/07/25 13:48:35;;;;;;;;;;;37.70;37.30;;;;;;5061351;28;20104;-73
2022/07/25 13:51:04;;;;;;;;;;;38.60;36.20;;;;;;5065206;28;19908;-72
2022/07/25 13:53:29;;;;;;;;;;;38.60;35.70;;;;;;5063950;28;19917;-74
2022/07/25 13:55:56;;;;;;;;;;;38.10;36.10;;;;;;5065839;28;19920;-74
2022/07/25 13:58:21;;;;;;;;;;;37.40;36.60;;;;;;5062397;28;19924;-75
2022/07/25 14:00:47;;;;;;;;;;;37.40;36.90;;;;;;5064756;28;20351;-74
2022/07/25 14:03:14;;;;;;;;;;;37.50;36.30;;;;;;5061989;28;21495;-74
2022/07/25 14:05:40;;;;;;;;;;;38.10;36.60;;;;;;5065134;28;19920;-78
2022/07/25 14:08:06;;;;;;;;;;;38.10;35.40;;;;;;5059595;28;20072;-79
2022/07/25 14:10:31;;;;;;;;;;;39.30;36.00;;;;;;5057579;28;19949;-74
2022/07/25 14:12:57;;;;;;;;;;;40.00;34.10;;;;;;5063630;28;19916;-78